sensor_id;sensor_type;location;lat;lon;timestamp;temperature;humidity
19878;DHT22;10101;52.204;9.910;2024-01-11T00:00:11;-8.70;1.00
19878;DHT22;10101;52.204;9.910;2024-01-11T00:02:38;-8.70;1.00
19878;DHT22;10101;52.204;9.910;2024-01-11T00:05:06;-8.70;1.00
19878;DHT22;10101;52.204;9.910;2024-01-11T00:07:33;-8.70;1.00
19878;DHT22;10101;52.204;9.910;2024-01-11T00:10:00;-8.70;1.00
19878;DHT22;10101;52.204;9.910;2024-01-11T00:12:27;-8.80;1.00
19878;DHT22;10101;52.204;9.910;2024-01-11T00:14:54;-8.80;1.00
19878;DHT22;10101;52.204;9.910;2024-01-11T00:17:22;-8.70;1.00
19878;DHT22;10101;52.204;9.910;2024-01-11T00:19:48;-8.80;1.00
19878;DHT22;10101;52.204;9.910;2024-01-11T00:22:16;-8.70;21.70
19878;DHT22;10101;52.204;9.910;2024-01-11T00:24:42;-8.70;2.60
19878;DHT22;10101;52.204;9.910;2024-01-11T00:27:09;-8.50;99.90
19878;DHT22;10101;52.204;9.910;2024-01-11T00:29:36;-8.50;99.90
19878;DHT22;10101;52.204;9.910;2024-01-11T00:32:03;-8.60;45.50
19878;DHT22;10101;52.204;9.910;2024-01-11T00:34:31;-8.60;1.00
19878;DHT22;10101;52.204;9.910;2024-01-11T00:36:58;-8.40;1.00
19878;DHT22;10101;52.204;9.910;2024-01-11T00:39:25;-8.50;1.00
19878;DHT22;10101;52.204;9.910;2024-01-11T00:41:51;-8.30;1.00
19878;DHT22;10101;52.204;9.910;2024-01-11T00:44:18;-8.60;1.00
19878;DHT22;10101;52.204;9.910;2024-01-11T00:46:45;-8.60;1.00
19878;DHT22;10101;52.204;9.910;2024-01-11T00:49:11;-8.60;1.00
19878;DHT22;10101;52.204;9.910;2024-01-11T00:51:40;-8.70;1.00
19878;DHT22;10101;52.204;9.910;2024-01-11T00:54:06;-8.70;51.60
19878;DHT22;10101;52.204;9.910;2024-01-11T00:56:33;-8.70;88.00
19878;DHT22;10101;52.204;9.910;2024-01-11T00:59:00;-8.80;73.40
19878;DHT22;10101;52.204;9.910;2024-01-11T01:01:27;-8.70;99.90
19878;DHT22;10101;52.204;9.910;2024-01-11T01:03:53;-8.70;99.90
19878;DHT22;10101;52.204;9.910;2024-01-11T01:06:20;-8.80;99.90
19878;DHT22;10101;52.204;9.910;2024-01-11T01:08:48;-8.80;99.90
19878;DHT22;10101;52.204;9.910;2024-01-11T01:11:15;-8.70;99.90
19878;DHT22;10101;52.204;9.910;2024-01-11T01:13:41;-8.60;99.90
19878;DHT22;10101;52.204;9.910;2024-01-11T01:16:08;-8.60;99.90
19878;DHT22;10101;52.204;9.910;2024-01-11T01:18:35;-8.70;99.90
19878;DHT22;10101;52.204;9.910;2024-01-11T01:21:02;-8.60;99.90
19878;DHT22;10101;52.204;9.910;2024-01-11T01:23:32;-8.60;99.90
19878;DHT22;10101;52.204;9.910;2024-01-11T01:26:00;-8.60;99.90
19878;DHT22;10101;52.204;9.910;2024-01-11T01:28:27;-8.70;99.90
19878;DHT22;10101;52.204;9.910;2024-01-11T01:30:53;-8.80;99.90
19878;DHT22;10101;52.204;9.910;2024-01-11T01:33:20;-8.70;99.90
19878;DHT22;10101;52.204;9.910;2024-01-11T01:35:47;-8.60;99.90
19878;DHT22;10101;52.204;9.910;2024-01-11T01:38:13;-8.80;99.90
19878;DHT22;10101;52.204;9.910;2024-01-11T01:40:40;-8.70;99.90
19878;DHT22;10101;52.204;9.910;2024-01-11T01:43:08;-8.70;99.90
19878;DHT22;10101;52.204;9.910;2024-01-11T01:45:35;-8.70;99.90
19878;DHT22;10101;52.204;9.910;2024-01-11T01:48:02;-8.70;99.90
19878;DHT22;10101;52.204;9.910;2024-01-11T01:50:29;-8.70;99.90
19878;DHT22;10101;52.204;9.910;2024-01-11T01:52:57;-8.80;99.90
19878;DHT22;10101;52.204;9.910;2024-01-11T01:55:25;-8.80;99.90
19878;DHT22;10101;52.204;9.910;2024-01-11T01:57:53;-8.70;99.90
19878;DHT22;10101;52.204;9.910;2024-01-11T02:00:22;-8.70;99.90
19878;DHT22;10101;52.204;9.910;2024-01-11T02:02:50;-8.70;99.90
19878;DHT22;10101;52.204;9.910;2024-01-11T02:05:19;-8.80;99.90
19878;DHT22;10101;52.204;9.910;2024-01-11T02:07:45;-8.90;99.90
19878;DHT22;10101;52.204;9.910;2024-01-11T02:10:12;-9.00;99.90
19878;DHT22;10101;52.204;9.910;2024-01-11T02:12:39;-8.90;99.90
19878;DHT22;10101;52.204;9.910;2024-01-11T02:15:08;-8.80;99.90
19878;DHT22;10101;52.204;9.910;2024-01-11T02:17:36;-8.80;99.90
19878;DHT22;10101;52.204;9.910;2024-01-11T02:20:03;-8.80;1.00
19878;DHT22;10101;52.204;9.910;2024-01-11T02:22:33;-8.70;1.00
19878;DHT22;10101;52.204;9.910;2024-01-11T02:25:02;-8.80;99.90
19878;DHT22;10101;52.204;9.910;2024-01-11T02:27:29;-8.80;99.90
19878;DHT22;10101;52.204;9.910;2024-01-11T02:29:56;-8.80;99.90
19878;DHT22;10101;52.204;9.910;2024-01-11T02:32:22;-8.90;99.90
19878;DHT22;10101;52.204;9.910;2024-01-11T02:34:50;-8.80;1.00
19878;DHT22;10101;52.204;9.910;2024-01-11T02:37:17;-8.70;1.00
19878;DHT22;10101;52.204;9.910;2024-01-11T02:39:44;-8.90;99.90
19878;DHT22;10101;52.204;9.910;2024-01-11T02:42:11;-8.80;1.00
19878;DHT22;10101;52.204;9.910;2024-01-11T02:44:39;-8.90;1.00
19878;DHT22;10101;52.204;9.910;2024-01-11T02:47:05;-9.00;99.90
19878;DHT22;10101;52.204;9.910;2024-01-11T02:49:32;-8.90;1.00
19878;DHT22;10101;52.204;9.910;2024-01-11T02:51:59;-8.90;1.00
19878;DHT22;10101;52.204;9.910;2024-01-11T02:54:25;-8.80;1.00
19878;DHT22;10101;52.204;9.910;2024-01-11T02:56:52;-8.80;1.00
19878;DHT22;10101;52.204;9.910;2024-01-11T02:59:20;-8.80;1.00
19878;DHT22;10101;52.204;9.910;2024-01-11T03:01:47;-8.90;1.00
19878;DHT22;10101;52.204;9.910;2024-01-11T03:04:14;-8.80;1.00
19878;DHT22;10101;52.204;9.910;2024-01-11T03:06:40;-8.80;1.00
19878;DHT22;10101;52.204;9.910;2024-01-11T03:09:07;-9.10;99.90
19878;DHT22;10101;52.204;9.910;2024-01-11T03:11:34;-8.70;1.00
19878;DHT22;10101;52.204;9.910;2024-01-11T03:14:03;-8.90;1.00
19878;DHT22;10101;52.204;9.910;2024-01-11T03:16:31;-8.80;1.00
19878;DHT22;10101;52.204;9.910;2024-01-11T03:18:58;-8.80;1.00
19878;DHT22;10101;52.204;9.910;2024-01-11T03:21:24;-8.80;1.00
19878;DHT22;10101;52.204;9.910;2024-01-11T03:23:51;-9.00;99.90
19878;DHT22;10101;52.204;9.910;2024-01-11T03:26:18;-8.80;1.00
19878;DHT22;10101;52.204;9.910;2024-01-11T03:28:44;-8.80;1.00
19878;DHT22;10101;52.204;9.910;2024-01-11T03:31:11;-8.80;1.00
19878;DHT22;10101;52.204;9.910;2024-01-11T03:33:39;-8.90;1.00
19878;DHT22;10101;52.204;9.910;2024-01-11T03:36:07;-9.00;1.00
19878;DHT22;10101;52.204;9.910;2024-01-11T03:38:34;-9.10;1.00
19878;DHT22;10101;52.204;9.910;2024-01-11T03:41:01;-9.00;1.00
19878;DHT22;10101;52.204;9.910;2024-01-11T03:43:28;-8.90;1.00
19878;DHT22;10101;52.204;9.910;2024-01-11T03:45:54;-8.90;1.00
19878;DHT22;10101;52.204;9.910;2024-01-11T03:48:21;-8.80;1.00
19878;DHT22;10101;52.204;9.910;2024-01-11T03:50:49;-8.90;1.00
19878;DHT22;10101;52.204;9.910;2024-01-11T03:53:16;-8.70;1.00
19878;DHT22;10101;52.204;9.910;2024-01-11T03:55:42;-8.90;1.00
19878;DHT22;10101;52.204;9.910;2024-01-11T03:58:09;-8.80;1.00
19878;DHT22;10101;52.204;9.910;2024-01-11T04:00:36;-8.80;1.00
19878;DHT22;10101;52.204;9.910;2024-01-11T04:03:03;-8.70;1.00
19878;DHT22;10101;52.204;9.910;2024-01-11T04:05:30;-8.60;1.00
19878;DHT22;10101;52.204;9.910;2024-01-11T04:07:58;-8.50;1.00
19878;DHT22;10101;52.204;9.910;2024-01-11T04:10:25;-8.40;1.00
19878;DHT22;10101;52.204;9.910;2024-01-11T04:12:51;-8.10;1.00
19878;DHT22;10101;52.204;9.910;2024-01-11T04:15:18;-8.30;1.00
19878;DHT22;10101;52.204;9.910;2024-01-11T04:17:45;-8.30;1.00
19878;DHT22;10101;52.204;9.910;2024-01-11T04:20:12;-8.30;1.00
19878;DHT22;10101;52.204;9.910;2024-01-11T04:22:39;-8.30;1.00
19878;DHT22;10101;52.204;9.910;2024-01-11T04:25:08;-8.30;1.00
19878;DHT22;10101;52.204;9.910;2024-01-11T04:27:34;-8.30;1.00
19878;DHT22;10101;52.204;9.910;2024-01-11T04:30:01;-8.30;1.00
19878;DHT22;10101;52.204;9.910;2024-01-11T04:32:28;-8.30;1.00
19878;DHT22;10101;52.204;9.910;2024-01-11T04:34:55;-8.30;1.00
19878;DHT22;10101;52.204;9.910;2024-01-11T04:37:21;-8.50;1.00
19878;DHT22;10101;52.204;9.910;2024-01-11T04:39:48;-8.40;1.00
19878;DHT22;10101;52.204;9.910;2024-01-11T04:42:16;-8.40;1.00
19878;DHT22;10101;52.204;9.910;2024-01-11T04:44:43;-8.50;1.00
19878;DHT22;10101;52.204;9.910;2024-01-11T04:47:10;-8.60;1.00
19878;DHT22;10101;52.204;9.910;2024-01-11T04:49:36;-8.50;1.00
19878;DHT22;10101;52.204;9.910;2024-01-11T04:52:03;-8.50;1.00
19878;DHT22;10101;52.204;9.910;2024-01-11T04:54:30;-8.50;1.00
19878;DHT22;10101;52.204;9.910;2024-01-11T04:56:57;-8.40;61.80
19878;DHT22;10101;52.204;9.910;2024-01-11T04:59:25;-8.30;99.90
19878;DHT22;10101;52.204;9.910;2024-01-11T05:01:52;-8.40;99.90
19878;DHT22;10101;52.204;9.910;2024-01-11T05:04:18;-8.30;99.90
19878;DHT22;10101;52.204;9.910;2024-01-11T05:06:45;-8.30;99.90
19878;DHT22;10101;52.204;9.910;2024-01-11T05:09:12;-8.30;99.90
19878;DHT22;10101;52.204;9.910;2024-01-11T05:11:39;-8.30;99.90
19878;DHT22;10101;52.204;9.910;2024-01-11T05:14:06;-8.40;99.90
19878;DHT22;10101;52.204;9.910;2024-01-11T05:16:34;-8.40;99.90
19878;DHT22;10101;52.204;9.910;2024-01-11T05:19:01;-8.40;99.90
19878;DHT22;10101;52.204;9.910;2024-01-11T05:21:27;-8.40;99.90
19878;DHT22;10101;52.204;9.910;2024-01-11T05:23:54;-8.10;99.90
19878;DHT22;10101;52.204;9.910;2024-01-11T05:26:21;-8.00;99.90
19878;DHT22;10101;52.204;9.910;2024-01-11T05:28:48;-8.30;1.00
19878;DHT22;10101;52.204;9.910;2024-01-11T05:31:15;-8.20;1.00
19878;DHT22;10101;52.204;9.910;2024-01-11T05:33:43;-8.30;1.00
19878;DHT22;10101;52.204;9.910;2024-01-11T05:36:11;-8.20;1.00
19878;DHT22;10101;52.204;9.910;2024-01-11T05:38:38;-8.30;1.00
19878;DHT22;10101;52.204;9.910;2024-01-11T05:41:06;-8.30;1.00
19878;DHT22;10101;52.204;9.910;2024-01-11T05:43:33;-8.30;1.00
19878;DHT22;10101;52.204;9.910;2024-01-11T05:45:59;-8.30;1.00
19878;DHT22;10101;52.204;9.910;2024-01-11T05:48:27;-8.30;1.00
19878;DHT22;10101;52.204;9.910;2024-01-11T05:50:55;-8.30;1.00
19878;DHT22;10101;52.204;9.910;2024-01-11T05:53:22;-8.30;1.00
19878;DHT22;10101;52.204;9.910;2024-01-11T05:55:50;-8.30;1.00
19878;DHT22;10101;52.204;9.910;2024-01-11T05:58:17;-8.30;1.00
19878;DHT22;10101;52.204;9.910;2024-01-11T06:00:44;-8.40;99.90
19878;DHT22;10101;52.204;9.910;2024-01-11T06:03:11;-8.40;1.00
19878;DHT22;10101;52.204;9.910;2024-01-11T06:05:39;-8.40;1.00
19878;DHT22;10101;52.204;9.910;2024-01-11T06:08:07;-8.40;1.00
19878;DHT22;10101;52.204;9.910;2024-01-11T06:10:35;-8.30;1.00
19878;DHT22;10101;52.204;9.910;2024-01-11T06:13:03;-8.30;1.00
19878;DHT22;10101;52.204;9.910;2024-01-11T06:15:29;-8.20;1.00
19878;DHT22;10101;52.204;9.910;2024-01-11T06:17:56;-8.10;1.00
19878;DHT22;10101;52.204;9.910;2024-01-11T06:20:23;-8.10;1.00
19878;DHT22;10101;52.204;9.910;2024-01-11T06:22:50;-8.00;1.00
19878;DHT22;10101;52.204;9.910;2024-01-11T06:25:18;-8.00;1.00
19878;DHT22;10101;52.204;9.910;2024-01-11T06:27:47;-8.00;1.00
19878;DHT22;10101;52.204;9.910;2024-01-11T06:30:16;-8.00;24.30
19878;DHT22;10101;52.204;9.910;2024-01-11T06:32:43;-8.10;67.60
19878;DHT22;10101;52.204;9.910;2024-01-11T06:35:10;-8.00;99.90
19878;DHT22;10101;52.204;9.910;2024-01-11T06:37:36;-8.00;99.90
19878;DHT22;10101;52.204;9.910;2024-01-11T06:40:04;-7.80;99.90
19878;DHT22;10101;52.204;9.910;2024-01-11T06:42:34;-8.00;99.90
19878;DHT22;10101;52.204;9.910;2024-01-11T06:45:01;-7.90;99.90
19878;DHT22;10101;52.204;9.910;2024-01-11T06:47:29;-7.90;99.90
19878;DHT22;10101;52.204;9.910;2024-01-11T06:49:55;-8.00;99.90
19878;DHT22;10101;52.204;9.910;2024-01-11T06:52:22;-8.00;99.90
19878;DHT22;10101;52.204;9.910;2024-01-11T06:54:49;-7.70;99.90
19878;DHT22;10101;52.204;9.910;2024-01-11T06:57:15;-8.00;99.90
19878;DHT22;10101;52.204;9.910;2024-01-11T06:59:43;-8.00;1.00
19878;DHT22;10101;52.204;9.910;2024-01-11T07:02:11;-7.80;1.00
19878;DHT22;10101;52.204;9.910;2024-01-11T07:04:43;-7.90;1.00
19878;DHT22;10101;52.204;9.910;2024-01-11T07:07:10;-8.10;1.00
19878;DHT22;10101;52.204;9.910;2024-01-11T07:09:37;-8.00;1.00
19878;DHT22;10101;52.204;9.910;2024-01-11T07:12:05;-8.00;1.00
19878;DHT22;10101;52.204;9.910;2024-01-11T07:14:31;-7.90;1.00
19878;DHT22;10101;52.204;9.910;2024-01-11T07:17:00;-8.00;1.00
19878;DHT22;10101;52.204;9.910;2024-01-11T07:19:26;-7.90;1.00
19878;DHT22;10101;52.204;9.910;2024-01-11T07:21:53;-7.90;1.00
19878;DHT22;10101;52.204;9.910;2024-01-11T07:24:20;-7.80;1.00
19878;DHT22;10101;52.204;9.910;2024-01-11T07:26:47;-7.80;1.00
19878;DHT22;10101;52.204;9.910;2024-01-11T07:29:14;-7.80;1.00
19878;DHT22;10101;52.204;9.910;2024-01-11T07:31:40;-7.80;34.30
19878;DHT22;10101;52.204;9.910;2024-01-11T07:34:08;-7.80;72.60
19878;DHT22;10101;52.204;9.910;2024-01-11T07:36:36;-7.50;99.90
19878;DHT22;10101;52.204;9.910;2024-01-11T07:39:03;-7.80;92.90
19878;DHT22;10101;52.204;9.910;2024-01-11T07:41:31;-7.80;99.90
19878;DHT22;10101;52.204;9.910;2024-01-11T07:43:58;-7.80;99.90
19878;DHT22;10101;52.204;9.910;2024-01-11T07:46:25;-7.80;99.90
19878;DHT22;10101;52.204;9.910;2024-01-11T07:48:52;-7.60;99.90
19878;DHT22;10101;52.204;9.910;2024-01-11T07:51:20;-7.80;99.90
19878;DHT22;10101;52.204;9.910;2024-01-11T07:53:47;-7.70;99.90
19878;DHT22;10101;52.204;9.910;2024-01-11T07:56:13;-7.70;99.90
19878;DHT22;10101;52.204;9.910;2024-01-11T07:58:40;-7.70;99.90
19878;DHT22;10101;52.204;9.910;2024-01-11T08:01:09;-7.60;99.90
19878;DHT22;10101;52.204;9.910;2024-01-11T08:03:36;-7.60;99.90
19878;DHT22;10101;52.204;9.910;2024-01-11T08:06:03;-7.50;99.90
19878;DHT22;10101;52.204;9.910;2024-01-11T08:08:31;-7.40;1.00
19878;DHT22;10101;52.204;9.910;2024-01-11T08:11:01;-7.20;1.00
19878;DHT22;10101;52.204;9.910;2024-01-11T08:13:28;-7.40;1.00
19878;DHT22;10101;52.204;9.910;2024-01-11T08:15:57;-7.30;1.00
19878;DHT22;10101;52.204;9.910;2024-01-11T08:18:24;-7.30;1.00
19878;DHT22;10101;52.204;9.910;2024-01-11T08:20:52;-7.00;1.00
19878;DHT22;10101;52.204;9.910;2024-01-11T08:23:19;-7.20;1.00
19878;DHT22;10101;52.204;9.910;2024-01-11T08:25:47;-7.10;1.00
19878;DHT22;10101;52.204;9.910;2024-01-11T08:28:14;-7.10;1.00
19878;DHT22;10101;52.204;9.910;2024-01-11T08:30:41;-7.10;1.00
19878;DHT22;10101;52.204;9.910;2024-01-11T08:33:08;-7.10;1.00
19878;DHT22;10101;52.204;9.910;2024-01-11T08:35:35;-7.10;1.00
19878;DHT22;10101;52.204;9.910;2024-01-11T08:38:02;-7.00;1.00
19878;DHT22;10101;52.204;9.910;2024-01-11T08:40:29;-7.00;1.00
19878;DHT22;10101;52.204;9.910;2024-01-11T08:42:57;-7.00;1.00
19878;DHT22;10101;52.204;9.910;2024-01-11T08:45:25;-6.90;1.00
19878;DHT22;10101;52.204;9.910;2024-01-11T08:47:51;-6.90;1.00
19878;DHT22;10101;52.204;9.910;2024-01-11T08:50:18;-6.90;1.00
19878;DHT22;10101;52.204;9.910;2024-01-11T08:52:47;-6.80;1.00
19878;DHT22;10101;52.204;9.910;2024-01-11T08:55:14;-6.60;1.00
19878;DHT22;10101;52.204;9.910;2024-01-11T08:57:40;-6.80;1.00
19878;DHT22;10101;52.204;9.910;2024-01-11T09:00:10;-6.70;1.00
19878;DHT22;10101;52.204;9.910;2024-01-11T09:02:36;-6.60;1.00
19878;DHT22;10101;52.204;9.910;2024-01-11T09:05:04;-6.60;1.00
19878;DHT22;10101;52.204;9.910;2024-01-11T09:07:32;-6.60;1.00
19878;DHT22;10101;52.204;9.910;2024-01-11T09:09:59;-6.50;1.00
19878;DHT22;10101;52.204;9.910;2024-01-11T09:12:26;-6.50;1.00
19878;DHT22;10101;52.204;9.910;2024-01-11T09:14:53;-6.50;1.00
19878;DHT22;10101;52.204;9.910;2024-01-11T09:17:21;-6.30;1.00
19878;DHT22;10101;52.204;9.910;2024-01-11T09:19:48;-6.40;1.00
19878;DHT22;10101;52.204;9.910;2024-01-11T09:22:15;-6.30;1.00
19878;DHT22;10101;52.204;9.910;2024-01-11T09:24:41;-6.30;1.00
19878;DHT22;10101;52.204;9.910;2024-01-11T09:27:08;-6.20;1.00
19878;DHT22;10101;52.204;9.910;2024-01-11T09:29:35;-6.10;7.80
19878;DHT22;10101;52.204;9.910;2024-01-11T09:32:02;-6.10;1.00
19878;DHT22;10101;52.204;9.910;2024-01-11T09:34:30;-6.10;1.00
19878;DHT22;10101;52.204;9.910;2024-01-11T09:36:57;-5.80;1.00
19878;DHT22;10101;52.204;9.910;2024-01-11T09:39:24;-5.80;1.00
19878;DHT22;10101;52.204;9.910;2024-01-11T09:41:55;-5.70;1.00
19878;DHT22;10101;52.204;9.910;2024-01-11T09:44:24;-5.70;1.00
19878;DHT22;10101;52.204;9.910;2024-01-11T09:46:52;-5.60;1.00
19878;DHT22;10101;52.204;9.910;2024-01-11T09:49:22;-5.60;1.00
19878;DHT22;10101;52.204;9.910;2024-01-11T09:51:51;-5.50;1.00
19878;DHT22;10101;52.204;9.910;2024-01-11T09:54:19;-5.50;1.00
19878;DHT22;10101;52.204;9.910;2024-01-11T09:56:48;-5.40;1.00
19878;DHT22;10101;52.204;9.910;2024-01-11T09:59:18;-5.40;1.00
19878;DHT22;10101;52.204;9.910;2024-01-11T10:01:48;-5.40;1.00
19878;DHT22;10101;52.204;9.910;2024-01-11T10:04:16;-5.30;64.10
19878;DHT22;10101;52.204;9.910;2024-01-11T10:06:43;-5.30;71.20
19878;DHT22;10101;52.204;9.910;2024-01-11T10:09:12;-5.20;99.90
19878;DHT22;10101;52.204;9.910;2024-01-11T10:11:39;-5.10;99.90
19878;DHT22;10101;52.204;9.910;2024-01-11T10:14:06;-5.00;99.90
19878;DHT22;10101;52.204;9.910;2024-01-11T10:16:33;-4.90;1.00
19878;DHT22;10101;52.204;9.910;2024-01-11T10:19:00;-4.90;1.00
19878;DHT22;10101;52.204;9.910;2024-01-11T10:21:27;-4.80;1.00
19878;DHT22;10101;52.204;9.910;2024-01-11T10:23:57;-4.80;1.00
19878;DHT22;10101;52.204;9.910;2024-01-11T10:26:26;-4.70;1.00
19878;DHT22;10101;52.204;9.910;2024-01-11T10:28:52;-4.80;6.20
19878;DHT22;10101;52.204;9.910;2024-01-11T10:31:21;-4.90;99.90
19878;DHT22;10101;52.204;9.910;2024-01-11T10:33:53;-4.90;99.90
19878;DHT22;10101;52.204;9.910;2024-01-11T10:36:19;-4.90;1.00
19878;DHT22;10101;52.204;9.910;2024-01-11T10:38:47;-4.90;1.00
19878;DHT22;10101;52.204;9.910;2024-01-11T10:41:18;-4.80;57.70
19878;DHT22;10101;52.204;9.910;2024-01-11T10:43:48;-4.70;99.90
19878;DHT22;10101;52.204;9.910;2024-01-11T10:46:15;-4.80;1.00
19878;DHT22;10101;52.204;9.910;2024-01-11T10:48:47;-4.80;17.90
19878;DHT22;10101;52.204;9.910;2024-01-11T10:51:16;-4.80;99.90
19878;DHT22;10101;52.204;9.910;2024-01-11T10:53:46;-4.70;1.00
19878;DHT22;10101;52.204;9.910;2024-01-11T10:56:15;-4.60;99.90
19878;DHT22;10101;52.204;9.910;2024-01-11T10:58:43;-4.50;1.00
19878;DHT22;10101;52.204;9.910;2024-01-11T11:01:12;-4.50;1.00
19878;DHT22;10101;52.204;9.910;2024-01-11T11:03:39;-4.50;99.90
19878;DHT22;10101;52.204;9.910;2024-01-11T11:06:09;-4.40;1.00
19878;DHT22;10101;52.204;9.910;2024-01-11T11:08:36;-4.40;1.00
19878;DHT22;10101;52.204;9.910;2024-01-11T11:11:04;-4.40;99.90
19878;DHT22;10101;52.204;9.910;2024-01-11T11:13:32;-4.30;1.00
19878;DHT22;10101;52.204;9.910;2024-01-11T11:16:00;-4.20;1.00
19878;DHT22;10101;52.204;9.910;2024-01-11T11:18:30;-4.10;1.00
19878;DHT22;10101;52.204;9.910;2024-01-11T11:21:00;-4.10;1.00
19878;DHT22;10101;52.204;9.910;2024-01-11T11:23:27;-3.90;99.90
19878;DHT22;10101;52.204;9.910;2024-01-11T11:25:55;-3.80;99.90
19878;DHT22;10101;52.204;9.910;2024-01-11T11:28:22;-3.70;39.20
19878;DHT22;10101;52.204;9.910;2024-01-11T11:30:50;-3.60;1.00
19878;DHT22;10101;52.204;9.910;2024-01-11T11:33:20;-3.50;1.00
19878;DHT22;10101;52.204;9.910;2024-01-11T11:35:51;-3.40;1.00
19878;DHT22;10101;52.204;9.910;2024-01-11T11:38:18;-3.30;1.00
19878;DHT22;10101;52.204;9.910;2024-01-11T11:40:47;-3.40;1.00
19878;DHT22;10101;52.204;9.910;2024-01-11T11:43:16;-3.30;1.00
19878;DHT22;10101;52.204;9.910;2024-01-11T11:45:45;-3.40;1.00
19878;DHT22;10101;52.204;9.910;2024-01-11T11:48:50;-3.30;99.90
19878;DHT22;10101;52.204;9.910;2024-01-11T11:51:19;-3.20;99.90
19878;DHT22;10101;52.204;9.910;2024-01-11T11:53:48;-3.30;99.90
19878;DHT22;10101;52.204;9.910;2024-01-11T11:56:16;-3.20;1.00
19878;DHT22;10101;52.204;9.910;2024-01-11T11:58:44;-3.10;1.00
19878;DHT22;10101;52.204;9.910;2024-01-11T12:01:11;-3.20;99.90
19878;DHT22;10101;52.204;9.910;2024-01-11T12:03:38;-3.00;1.00
19878;DHT22;10101;52.204;9.910;2024-01-11T12:06:08;-3.00;1.00
19878;DHT22;10101;52.204;9.910;2024-01-11T12:08:37;-3.00;99.90
19878;DHT22;10101;52.204;9.910;2024-01-11T12:11:07;-2.80;1.00
19878;DHT22;10101;52.204;9.910;2024-01-11T12:13:34;-2.90;1.00
19878;DHT22;10101;52.204;9.910;2024-01-11T12:16:02;-3.00;1.00
19878;DHT22;10101;52.204;9.910;2024-01-11T12:18:28;-2.90;1.00
19878;DHT22;10101;52.204;9.910;2024-01-11T12:20:56;-2.80;1.00
19878;DHT22;10101;52.204;9.910;2024-01-11T12:23:22;-2.80;1.00
19878;DHT22;10101;52.204;9.910;2024-01-11T12:25:51;-2.80;99.90
19878;DHT22;10101;52.204;9.910;2024-01-11T12:28:17;-2.70;99.90
19878;DHT22;10101;52.204;9.910;2024-01-11T12:30:45;-2.60;1.00
19878;DHT22;10101;52.204;9.910;2024-01-11T12:33:12;-2.70;1.00
19878;DHT22;10101;52.204;9.910;2024-01-11T12:35:39;-2.60;1.00
19878;DHT22;10101;52.204;9.910;2024-01-11T12:38:06;-2.50;99.90
19878;DHT22;10101;52.204;9.910;2024-01-11T12:40:35;-2.50;99.90
19878;DHT22;10101;52.204;9.910;2024-01-11T12:43:04;-2.40;99.90
19878;DHT22;10101;52.204;9.910;2024-01-11T12:45:33;-2.40;99.90
19878;DHT22;10101;52.204;9.910;2024-01-11T12:48:01;-2.40;99.90
19878;DHT22;10101;52.204;9.910;2024-01-11T12:50:30;-2.40;99.90
19878;DHT22;10101;52.204;9.910;2024-01-11T12:53:07;-2.50;99.90
19878;DHT22;10101;52.204;9.910;2024-01-11T12:55:35;-2.40;99.90
19878;DHT22;10101;52.204;9.910;2024-01-11T12:58:07;-2.40;99.90
19878;DHT22;10101;52.204;9.910;2024-01-11T13:00:35;-2.40;99.90
19878;DHT22;10101;52.204;9.910;2024-01-11T13:03:04;-2.40;99.90
19878;DHT22;10101;52.204;9.910;2024-01-11T13:05:31;-2.40;99.90
19878;DHT22;10101;52.204;9.910;2024-01-11T13:08:00;-2.40;99.90
19878;DHT22;10101;52.204;9.910;2024-01-11T13:10:28;-2.40;99.90
19878;DHT22;10101;52.204;9.910;2024-01-11T13:12:55;-2.30;99.90
19878;DHT22;10101;52.204;9.910;2024-01-11T13:15:23;-2.30;99.90
19878;DHT22;10101;52.204;9.910;2024-01-11T13:17:50;-2.20;99.90
19878;DHT22;10101;52.204;9.910;2024-01-11T13:20:17;-2.20;99.90
19878;DHT22;10101;52.204;9.910;2024-01-11T13:22:44;-2.20;99.90
19878;DHT22;10101;52.204;9.910;2024-01-11T13:25:11;-2.10;99.90
19878;DHT22;10101;52.204;9.910;2024-01-11T13:27:38;-2.00;99.90
19878;DHT22;10101;52.204;9.910;2024-01-11T13:30:05;-2.00;99.90
19878;DHT22;10101;52.204;9.910;2024-01-11T13:32:35;-1.90;99.90
19878;DHT22;10101;52.204;9.910;2024-01-11T13:35:01;-1.90;99.90
19878;DHT22;10101;52.204;9.910;2024-01-11T13:37:29;-1.80;99.90
19878;DHT22;10101;52.204;9.910;2024-01-11T13:39:56;-1.70;99.90
19878;DHT22;10101;52.204;9.910;2024-01-11T13:42:22;-1.70;99.90
19878;DHT22;10101;52.204;9.910;2024-01-11T13:44:49;-1.60;99.90
19878;DHT22;10101;52.204;9.910;2024-01-11T13:47:16;-1.60;99.90
19878;DHT22;10101;52.204;9.910;2024-01-11T13:49:44;-1.50;99.90
19878;DHT22;10101;52.204;9.910;2024-01-11T13:52:11;-1.50;99.90
19878;DHT22;10101;52.204;9.910;2024-01-11T13:54:38;-1.40;99.90
19878;DHT22;10101;52.204;9.910;2024-01-11T13:57:05;-1.30;99.90
19878;DHT22;10101;52.204;9.910;2024-01-11T13:59:32;-1.30;99.90
19878;DHT22;10101;52.204;9.910;2024-01-11T14:01:59;-1.30;99.90
19878;DHT22;10101;52.204;9.910;2024-01-11T14:04:25;-1.30;99.90
19878;DHT22;10101;52.204;9.910;2024-01-11T14:06:54;-1.20;99.90
19878;DHT22;10101;52.204;9.910;2024-01-11T14:09:21;-1.20;99.90
19878;DHT22;10101;52.204;9.910;2024-01-11T14:11:48;-1.30;99.90
19878;DHT22;10101;52.204;9.910;2024-01-11T14:14:15;-1.20;99.90
19878;DHT22;10101;52.204;9.910;2024-01-11T14:16:44;-1.20;99.90
19878;DHT22;10101;52.204;9.910;2024-01-11T14:19:11;-1.20;99.90
19878;DHT22;10101;52.204;9.910;2024-01-11T14:21:38;-1.20;99.90
19878;DHT22;10101;52.204;9.910;2024-01-11T14:24:06;-1.20;99.90
19878;DHT22;10101;52.204;9.910;2024-01-11T14:26:34;-1.20;99.90
19878;DHT22;10101;52.204;9.910;2024-01-11T14:29:01;-1.10;99.90
19878;DHT22;10101;52.204;9.910;2024-01-11T14:31:28;-1.10;99.90
19878;DHT22;10101;52.204;9.910;2024-01-11T14:33:55;-1.10;99.90
19878;DHT22;10101;52.204;9.910;2024-01-11T14:36:21;-1.00;99.90
19878;DHT22;10101;52.204;9.910;2024-01-11T14:38:48;-1.00;99.90
19878;DHT22;10101;52.204;9.910;2024-01-11T14:41:16;-1.00;99.90
19878;DHT22;10101;52.204;9.910;2024-01-11T14:43:43;-1.00;99.90
19878;DHT22;10101;52.204;9.910;2024-01-11T14:46:11;-0.90;99.90
19878;DHT22;10101;52.204;9.910;2024-01-11T14:48:38;-0.70;99.90
19878;DHT22;10101;52.204;9.910;2024-01-11T14:51:06;-0.80;99.90
19878;DHT22;10101;52.204;9.910;2024-01-11T14:53:34;-0.80;99.90
19878;DHT22;10101;52.204;9.910;2024-01-11T14:58:29;-0.60;99.90
19878;DHT22;10101;52.204;9.910;2024-01-11T15:00:56;-0.50;99.90
19878;DHT22;10101;52.204;9.910;2024-01-11T15:03:23;-0.50;99.90
19878;DHT22;10101;52.204;9.910;2024-01-11T15:05:51;-0.50;99.90
19878;DHT22;10101;52.204;9.910;2024-01-11T15:08:18;-0.50;99.90
19878;DHT22;10101;52.204;9.910;2024-01-11T15:10:45;-0.50;99.90
19878;DHT22;10101;52.204;9.910;2024-01-11T15:13:12;-0.50;99.90
19878;DHT22;10101;52.204;9.910;2024-01-11T15:15:40;-0.50;99.90
19878;DHT22;10101;52.204;9.910;2024-01-11T15:18:07;-0.60;99.90
19878;DHT22;10101;52.204;9.910;2024-01-11T15:20:33;-0.60;99.90
19878;DHT22;10101;52.204;9.910;2024-01-11T15:23:00;-0.60;99.90
19878;DHT22;10101;52.204;9.910;2024-01-11T15:25:28;-0.60;99.90
19878;DHT22;10101;52.204;9.910;2024-01-11T15:27:55;-0.60;99.90
19878;DHT22;10101;52.204;9.910;2024-01-11T15:30:22;-0.60;99.90
19878;DHT22;10101;52.204;9.910;2024-01-11T15:32:50;-0.60;99.90
19878;DHT22;10101;52.204;9.910;2024-01-11T15:35:17;-0.60;99.90
19878;DHT22;10101;52.204;9.910;2024-01-11T15:37:44;-0.60;99.90
19878;DHT22;10101;52.204;9.910;2024-01-11T15:40:11;-0.60;99.90